createdAt,value
2023-01-20T00:02:27.051Z,5.20
2023-01-20T00:04:55.790Z,5.40
2023-01-20T00:07:24.996Z,5.50
2023-01-20T00:10:30.260Z,5.30
2023-01-20T00:13:17.298Z,5.40
2023-01-20T00:15:48.763Z,5.50
2023-01-20T00:18:19.050Z,5.40
2023-01-20T00:20:47.817Z,5.40
2023-01-20T00:23:16.550Z,5.50
2023-01-20T00:26:05.845Z,5.40
2023-01-20T00:28:35.294Z,5.50
2023-01-20T00:31:15.042Z,5.50
2023-01-20T00:34:05.090Z,5.50
2023-01-20T00:36:34.345Z,5.40
2023-01-20T00:39:04.075Z,5.30
2023-01-20T00:41:33.199Z,5.20
2023-01-20T00:47:05.931Z,5.20
2023-01-20T00:49:38.172Z,5.00
2023-01-20T00:52:24.500Z,5.10
2023-01-20T00:55:29.339Z,5.00
2023-01-20T00:57:58.149Z,5.20
2023-01-20T01:00:44.192Z,5.10
2023-01-20T01:06:19.038Z,5.10
2023-01-20T01:08:48.065Z,4.90
2023-01-20T01:11:16.850Z,5.10
2023-01-20T01:14:02.940Z,4.90
2023-01-20T01:16:50.615Z,4.90
2023-01-20T01:19:22.119Z,4.90
2023-01-20T01:22:11.090Z,5.00
2023-01-20T01:24:44.338Z,5.00
2023-01-20T01:27:13.544Z,5.00
2023-01-20T01:32:48.373Z,5.10
2023-01-20T01:38:04.929Z,4.90
2023-01-20T01:43:42.249Z,4.90
2023-01-20T01:46:11.045Z,5.10
2023-01-20T01:48:44.723Z,5.00
2023-01-20T01:51:34.429Z,5.00
2023-01-20T01:54:09.916Z,4.90
2023-01-20T01:56:39.992Z,4.80
2023-01-20T01:59:26.539Z,4.90
2023-01-20T02:02:15.963Z,4.80
2023-01-20T02:05:09.304Z,4.90
2023-01-20T02:07:38.812Z,4.90
2023-01-20T02:10:10.434Z,4.90
2023-01-20T02:12:42.596Z,4.80
2023-01-20T02:15:12.120Z,5.00
2023-01-20T02:18:14.735Z,4.90
2023-01-20T02:21:17.742Z,5.00
2023-01-20T02:24:08.814Z,5.20
2023-01-20T02:27:07.742Z,4.90
2023-01-20T02:30:03.722Z,5.10
2023-01-20T02:32:57.043Z,5.00
2023-01-20T02:35:47.759Z,4.90
2023-01-20T02:38:49.792Z,5.10
2023-01-20T02:41:40.070Z,5.10
2023-01-20T02:44:35.773Z,5.30
2023-01-20T02:47:25.741Z,4.90
2023-01-20T02:49:59.743Z,4.90
2023-01-20T02:52:49.939Z,5.00
2023-01-20T02:55:24.099Z,5.10
2023-01-20T02:58:47.824Z,5.10
2023-01-20T03:01:41.716Z,4.90
2023-01-20T03:04:13.593Z,5.00
2023-01-20T03:07:02.894Z,4.80
2023-01-20T03:09:35.099Z,4.80
2023-01-20T03:12:25.819Z,4.50
2023-01-20T03:15:12.227Z,4.60
2023-01-20T03:17:41.617Z,4.70
2023-01-20T03:20:11.674Z,4.70
2023-01-20T03:22:59.181Z,4.80
2023-01-20T03:25:28.186Z,4.70
2023-01-20T03:27:56.972Z,4.90
2023-01-20T03:30:43.938Z,4.60
2023-01-20T03:33:31.130Z,4.70
2023-01-20T03:36:00.098Z,4.80
2023-01-20T03:38:49.079Z,4.80
2023-01-20T03:41:40.083Z,4.90
2023-01-20T03:44:33.251Z,4.70
2023-01-20T03:47:28.421Z,4.80
2023-01-20T03:50:24.322Z,4.80
2023-01-20T03:52:56.203Z,4.80
2023-01-20T03:55:49.135Z,4.80
2023-01-20T03:58:21.691Z,4.70
2023-01-20T04:00:52.243Z,4.60
2023-01-20T04:03:27.713Z,4.80
2023-01-20T04:06:15.983Z,4.80
2023-01-20T04:08:49.663Z,4.80
2023-01-20T04:11:20.086Z,4.70
2023-01-20T04:14:09.641Z,5.20
2023-01-20T04:16:39.010Z,4.90
2023-01-20T04:19:07.803Z,4.90
2023-01-20T04:22:13.759Z,4.90
2023-01-20T04:24:48.290Z,4.90
2023-01-20T04:27:36.011Z,4.70
2023-01-20T04:30:04.894Z,4.80
2023-01-20T04:32:52.223Z,4.70
2023-01-20T04:35:21.873Z,4.80
2023-01-20T04:37:50.649Z,4.90
2023-01-20T04:40:21.592Z,4.90
2023-01-20T04:42:51.738Z,5.00
2023-01-20T04:45:20.635Z,5.00
2023-01-20T04:47:49.403Z,5.00
2023-01-20T04:50:19.121Z,5.00
2023-01-20T04:53:06.270Z,5.00
2023-01-20T04:59:17.610Z,4.90
2023-01-20T05:02:03.772Z,5.00
2023-01-20T05:04:32.578Z,4.90
2023-01-20T05:07:01.291Z,5.00
2023-01-20T05:09:48.558Z,5.00
2023-01-20T05:12:37.859Z,4.90
2023-01-20T05:15:27.009Z,4.90
2023-01-20T05:17:55.829Z,4.90
2023-01-20T05:20:45.457Z,4.70
2023-01-20T05:23:14.517Z,4.50
2023-01-20T05:26:04.029Z,4.40
2023-01-20T05:29:12.129Z,4.50
2023-01-20T05:31:44.869Z,4.60
2023-01-20T05:34:34.536Z,4.40
2023-01-20T05:37:22.133Z,4.50
2023-01-20T05:39:51.032Z,4.60
2023-01-20T05:42:19.738Z,4.70
2023-01-20T05:44:48.468Z,4.80
2023-01-20T05:47:56.571Z,4.70
2023-01-20T05:50:29.002Z,4.60
2023-01-20T05:52:58.069Z,4.50
2023-01-20T05:55:44.435Z,4.50
2023-01-20T05:58:49.291Z,4.60
2023-01-20T06:01:18.193Z,4.60
2023-01-20T06:03:48.391Z,4.70
2023-01-20T06:06:20.509Z,5.00
2023-01-20T06:09:07.927Z,4.40
2023-01-20T06:11:36.771Z,4.70
2023-01-20T06:14:05.601Z,4.40
2023-01-20T06:16:51.959Z,4.60
2023-01-20T06:19:22.160Z,4.50
2023-01-20T06:21:50.888Z,4.60
2023-01-20T06:24:19.601Z,4.60
2023-01-20T06:27:08.457Z,4.60
2023-01-20T06:29:37.250Z,4.60
2023-01-20T06:32:24.599Z,4.60
2023-01-20T06:35:16.899Z,4.50
2023-01-20T06:38:04.685Z,4.60
2023-01-20T06:40:33.859Z,4.60
2023-01-20T06:43:03.467Z,5.80
2023-01-20T06:49:00.432Z,4.90
2023-01-20T06:51:52.653Z,4.80
2023-01-20T06:54:21.411Z,4.80
2023-01-20T06:57:08.713Z,4.70
2023-01-20T06:59:56.204Z,4.70
2023-01-20T07:02:43.572Z,4.70
2023-01-20T07:05:12.874Z,4.70
2023-01-20T07:08:19.227Z,4.60
2023-01-20T07:11:06.672Z,4.70
2023-01-20T07:13:35.448Z,4.50
2023-01-20T07:16:04.401Z,4.50
2023-01-20T07:18:52.324Z,4.70
2023-01-20T07:21:58.368Z,4.80
2023-01-20T07:28:27.519Z,5.20
2023-01-20T07:34:01.728Z,5.20
2023-01-20T07:36:51.239Z,5.10
2023-01-20T07:39:37.229Z,5.10
2023-01-20T07:42:24.459Z,5.20
2023-01-20T07:45:12.428Z,5.30
2023-01-20T07:47:42.820Z,5.50
2023-01-20T07:50:12.457Z,5.30
2023-01-20T07:52:41.295Z,5.30
2023-01-20T07:55:28.363Z,5.20
2023-01-20T07:57:57.551Z,5.30
2023-01-20T08:00:48.829Z,5.30
2023-01-20T08:03:19.082Z,5.40
2023-01-20T08:06:05.110Z,5.30
2023-01-20T08:08:34.039Z,5.20
2023-01-20T08:11:22.926Z,5.10
2023-01-20T08:13:51.841Z,5.20
2023-01-20T08:16:39.450Z,5.50
2023-01-20T08:19:09.914Z,5.40
2023-01-20T08:21:57.347Z,5.50
2023-01-20T08:24:26.119Z,5.20
2023-01-20T08:27:13.656Z,5.30
2023-01-20T08:29:42.396Z,5.50
2023-01-20T08:32:11.152Z,5.70
2023-01-20T08:34:59.708Z,5.50
2023-01-20T08:37:31.730Z,5.60
2023-01-20T08:40:55.051Z,5.70
2023-01-20T08:43:59.265Z,5.50
2023-01-20T08:46:28.508Z,5.60
2023-01-20T08:48:57.478Z,5.50
2023-01-20T08:51:29.905Z,5.60
2023-01-20T08:53:59.025Z,5.70
2023-01-20T08:59:51.945Z,5.70
2023-01-20T09:02:20.757Z,5.90
2023-01-20T09:05:07.247Z,5.70
2023-01-20T09:08:16.559Z,5.70
2023-01-20T09:11:04.092Z,5.80
2023-01-20T09:14:09.669Z,5.90
2023-01-20T09:16:57.930Z,6.20
2023-01-20T09:19:26.815Z,6.10
2023-01-20T09:22:30.973Z,6.00
2023-01-20T09:25:19.780Z,5.80
2023-01-20T09:27:48.602Z,5.90
2023-01-20T09:30:35.101Z,5.80
2023-01-20T09:33:39.800Z,5.70
2023-01-20T09:36:44.182Z,6.00
2023-01-20T09:39:32.432Z,6.00
2023-01-20T09:42:33.849Z,6.10
2023-01-20T09:45:22.880Z,5.90
2023-01-20T09:47:52.023Z,6.00
2023-01-20T09:51:01.692Z,6.10
2023-01-20T09:54:04.814Z,6.20
2023-01-20T09:56:39.291Z,6.10
2023-01-20T09:59:31.624Z,6.10
2023-01-20T10:02:05.969Z,5.90
2023-01-20T10:04:57.526Z,5.90
2023-01-20T10:07:51.206Z,6.00
2023-01-20T10:10:46.390Z,5.90
2023-01-20T10:13:23.552Z,6.00
2023-01-20T10:16:13.520Z,6.00
2023-01-20T10:19:02.604Z,6.00
2023-01-20T10:21:36.936Z,6.00
2023-01-20T10:24:43.129Z,6.50
2023-01-20T10:27:11.922Z,6.60
2023-01-20T10:30:03.113Z,7.00
2023-01-20T10:32:37.314Z,7.50
2023-01-20T10:35:15.830Z,8.10
2023-01-20T10:38:02.248Z,8.10
2023-01-20T10:40:37.769Z,8.20
2023-01-20T10:43:12.691Z,8.30
2023-01-20T10:45:55.487Z,8.70
2023-01-20T10:48:49.243Z,8.90
2023-01-20T10:51:40.006Z,8.80
2023-01-20T10:54:19.070Z,8.90
2023-01-20T10:56:53.727Z,8.90
2023-01-20T10:59:46.910Z,9.40
2023-01-20T11:02:35.483Z,9.50
2023-01-20T11:05:26.702Z,9.50
2023-01-20T11:08:14.483Z,9.90
2023-01-20T11:11:01.608Z,9.80
2023-01-20T11:13:30.450Z,9.80
2023-01-20T11:16:19.958Z,9.90
2023-01-20T11:19:32.701Z,9.90
2023-01-20T11:22:13.578Z,10.20
2023-01-20T11:24:44.698Z,10.20
2023-01-20T11:27:34.212Z,10.00
2023-01-20T11:30:08.439Z,10.30
2023-01-20T11:32:40.137Z,10.50
2023-01-20T11:35:23.009Z,10.80
2023-01-20T11:38:26.260Z,11.00
2023-01-20T11:40:55.677Z,11.10
2023-01-20T11:43:43.142Z,11.60
2023-01-20T11:46:33.491Z,11.20
2023-01-20T11:49:16.380Z,11.70
2023-01-20T11:52:04.850Z,10.80
2023-01-20T11:54:52.382Z,9.80
2023-01-20T11:57:21.219Z,9.30
2023-01-20T12:02:41.890Z,9.10
2023-01-20T12:05:20.631Z,9.00
2023-01-20T12:07:52.557Z,9.00
2023-01-20T12:10:43.849Z,8.90
2023-01-20T12:13:18.629Z,9.00
2023-01-20T12:16:09.564Z,9.60
2023-01-20T12:19:02.986Z,9.50
2023-01-20T12:21:56.145Z,9.20
2023-01-20T12:24:54.051Z,9.00
2023-01-20T12:27:29.082Z,9.10
2023-01-20T12:30:01.415Z,9.40
2023-01-20T12:32:33.326Z,9.50
2023-01-20T12:35:02.208Z,9.50
2023-01-20T12:37:57.959Z,9.30
2023-01-20T12:40:54.157Z,9.40
2023-01-20T12:44:05.545Z,9.50
2023-01-20T12:46:41.081Z,8.90
2023-01-20T12:49:38.178Z,8.90
2023-01-20T12:52:39.446Z,8.70
2023-01-20T12:55:20.115Z,8.80
2023-01-20T12:58:01.814Z,8.70
2023-01-20T13:00:56.471Z,8.80
2023-01-20T13:03:58.752Z,9.00
2023-01-20T13:07:02.291Z,8.90
2023-01-20T13:09:53.245Z,9.00
2023-01-20T13:12:48.589Z,9.10
2023-01-20T13:15:36.757Z,9.10
2023-01-20T13:18:24.824Z,9.40
2023-01-20T13:20:55.049Z,9.30
2023-01-20T13:23:27.787Z,9.40
2023-01-20T13:26:00.187Z,9.50
2023-01-20T13:28:30.306Z,9.30
2023-01-20T13:31:00.137Z,9.50
2023-01-20T13:33:36.290Z,9.60
2023-01-20T13:36:17.624Z,9.60
2023-01-20T13:38:47.287Z,9.60
2023-01-20T13:42:06.520Z,9.60
2023-01-20T13:44:36.377Z,9.60
2023-01-20T13:47:23.029Z,9.60
2023-01-20T13:50:40.582Z,9.80
2023-01-20T13:53:34.256Z,9.70
2023-01-20T13:56:27.808Z,9.50
2023-01-20T13:59:32.519Z,9.60
2023-01-20T14:05:31.315Z,9.50
2023-01-20T14:08:17.919Z,9.60
2023-01-20T14:11:05.032Z,9.60
2023-01-20T14:13:52.161Z,9.50
2023-01-20T14:19:32.613Z,9.30
2023-01-20T14:22:23.173Z,9.20
2023-01-20T14:24:53.602Z,9.20
2023-01-20T14:27:24.330Z,9.30
2023-01-20T14:30:13.149Z,9.10
2023-01-20T14:33:38.682Z,9.10
2023-01-20T14:36:25.711Z,9.30
2023-01-20T14:39:19.821Z,9.20
2023-01-20T14:41:50.317Z,9.30
2023-01-20T14:44:21.984Z,9.10
2023-01-20T14:47:10.554Z,9.10
2023-01-20T14:49:43.548Z,9.10
2023-01-20T14:53:06.994Z,9.00
2023-01-20T14:55:40.917Z,8.80
2023-01-20T14:58:28.513Z,9.00
2023-01-20T15:01:01.310Z,8.80
2023-01-20T15:03:31.764Z,8.90
2023-01-20T15:06:19.999Z,8.90
2023-01-20T15:09:07.880Z,9.00
2023-01-20T15:12:09.679Z,8.80
2023-01-20T15:15:15.690Z,8.80
2023-01-20T15:18:14.992Z,8.80
2023-01-20T15:20:48.164Z,8.60
2023-01-20T15:23:38.337Z,8.60
2023-01-20T15:26:29.024Z,8.30
2023-01-20T15:28:58.598Z,8.40
2023-01-20T15:31:27.753Z,8.10
2023-01-20T15:34:15.417Z,8.00
2023-01-20T15:37:04.110Z,7.90
2023-01-20T15:39:51.032Z,7.80
2023-01-20T15:42:38.060Z,7.80
2023-01-20T15:45:07.525Z,8.00
2023-01-20T15:47:36.309Z,8.20
2023-01-20T15:50:12.743Z,8.20
2023-01-20T15:52:41.523Z,8.20
2023-01-20T15:55:32.901Z,8.00
2023-01-20T15:58:01.626Z,8.10
2023-01-20T16:00:47.991Z,8.20
2023-01-20T16:03:55.073Z,8.00
2023-01-20T16:06:34.321Z,7.80
2023-01-20T16:09:22.449Z,8.00
2023-01-20T16:11:51.293Z,8.00
2023-01-20T16:14:20.079Z,7.90
2023-01-20T16:16:48.825Z,7.70
2023-01-20T16:19:36.847Z,7.50
2023-01-20T16:22:08.747Z,7.50
2023-01-20T16:24:37.883Z,7.60
2023-01-20T16:27:15.209Z,7.80
2023-01-20T16:30:21.049Z,7.70
2023-01-20T16:32:49.765Z,7.70
2023-01-20T16:38:45.133Z,7.70
2023-01-20T16:41:18.028Z,7.70
2023-01-20T16:43:46.772Z,7.80
2023-01-20T16:46:17.019Z,7.80
2023-01-20T16:49:03.271Z,7.60
2023-01-20T16:51:50.721Z,7.70
2023-01-20T16:54:21.219Z,7.80
2023-01-20T16:57:08.250Z,7.70
2023-01-20T16:59:55.614Z,7.50
2023-01-20T17:03:02.532Z,7.40
2023-01-20T17:05:31.590Z,7.50
2023-01-20T17:08:55.175Z,7.40
2023-01-20T17:11:27.299Z,7.40
2023-01-20T17:13:57.084Z,7.10
2023-01-20T17:16:46.460Z,7.00
2023-01-20T17:19:17.685Z,7.20
2023-01-20T17:21:47.669Z,7.50
2023-01-20T17:24:39.362Z,6.90
2023-01-20T17:27:09.535Z,7.00
2023-01-20T17:29:38.547Z,7.00
2023-01-20T17:32:07.380Z,7.00
2023-01-20T17:34:36.224Z,7.00
2023-01-20T17:37:05.043Z,6.70
2023-01-20T17:39:33.790Z,6.60
2023-01-20T17:42:21.201Z,6.60
2023-01-20T17:44:53.449Z,6.70
2023-01-20T17:50:45.613Z,6.50
2023-01-20T17:53:14.495Z,6.60
2023-01-20T17:56:11.755Z,6.40
2023-01-20T18:02:06.418Z,6.20
2023-01-20T18:04:53.625Z,6.30
2023-01-20T18:07:22.421Z,6.40
2023-01-20T18:10:28.370Z,6.20
2023-01-20T18:13:16.129Z,6.10
2023-01-20T18:15:45.201Z,5.90
2023-01-20T18:18:33.855Z,5.80
2023-01-20T18:21:28.271Z,5.90
2023-01-20T18:24:15.792Z,5.80
2023-01-20T18:26:44.851Z,5.80
2023-01-20T18:29:16.846Z,5.80
2023-01-20T18:35:10.312Z,5.80
2023-01-20T18:41:02.922Z,5.50
2023-01-20T18:43:51.215Z,5.60
2023-01-20T18:46:20.602Z,5.60
2023-01-20T18:48:52.171Z,5.40
2023-01-20T18:51:58.433Z,5.10
2023-01-20T18:54:30.153Z,4.90
2023-01-20T18:56:59.011Z,4.80
2023-01-20T18:59:28.065Z,4.90
2023-01-20T19:01:58.605Z,4.70
2023-01-20T19:04:27.441Z,4.50
2023-01-20T19:07:16.660Z,4.30
2023-01-20T19:09:48.021Z,4.30
2023-01-20T19:12:35.954Z,4.50
2023-01-20T19:15:05.111Z,4.50
2023-01-20T19:17:34.265Z,4.80
2023-01-20T19:20:21.833Z,4.90
2023-01-20T19:22:52.050Z,4.80
2023-01-20T19:25:20.863Z,4.80
2023-01-20T19:28:25.279Z,5.00
2023-01-20T19:30:54.196Z,4.90
2023-01-20T19:33:23.032Z,4.50
2023-01-20T19:36:14.083Z,4.50
2023-01-20T19:39:03.290Z,4.50
2023-01-20T19:42:09.314Z,4.20
2023-01-20T19:44:38.051Z,4.10
2023-01-20T19:47:25.098Z,4.30
2023-01-20T19:49:53.833Z,4.20
2023-01-20T19:52:40.836Z,4.20
2023-01-20T19:55:29.476Z,4.20
2023-01-20T19:58:34.019Z,4.30
2023-01-20T20:01:09.724Z,4.10
2023-01-20T20:03:38.963Z,4.10
2023-01-20T20:06:09.165Z,4.20
2023-01-20T20:08:37.908Z,4.00
2023-01-20T20:11:11.966Z,4.10
2023-01-20T20:13:40.742Z,4.10
2023-01-20T20:16:09.768Z,4.20
2023-01-20T20:19:14.385Z,4.40
2023-01-20T20:22:01.430Z,4.30
2023-01-20T20:24:48.895Z,4.40
2023-01-20T20:27:37.611Z,4.60
2023-01-20T20:30:24.737Z,4.50
2023-01-20T20:33:11.823Z,4.40
2023-01-20T20:35:40.990Z,4.30
2023-01-20T20:38:27.633Z,4.20
2023-01-20T20:40:59.726Z,4.30
2023-01-20T20:43:29.913Z,4.30
2023-01-20T20:46:03.688Z,4.40
2023-01-20T20:48:34.132Z,4.40
2023-01-20T20:51:07.270Z,4.50
2023-01-20T20:53:53.340Z,4.30
2023-01-20T20:56:22.168Z,4.30
2023-01-20T20:59:11.231Z,4.50
2023-01-20T21:01:42.220Z,4.70
2023-01-20T21:04:11.859Z,4.60
2023-01-20T21:06:40.773Z,4.50
2023-01-20T21:09:27.354Z,4.60
2023-01-20T21:11:56.512Z,4.50
2023-01-20T21:14:45.093Z,4.40
2023-01-20T21:17:13.951Z,4.40
2023-01-20T21:19:42.730Z,4.60
2023-01-20T21:22:11.782Z,4.50
2023-01-20T21:24:40.558Z,4.50
2023-01-20T21:27:09.441Z,4.50
2023-01-20T21:29:38.830Z,4.40
2023-01-20T21:32:46.756Z,4.50
2023-01-20T21:35:15.750Z,4.40
2023-01-20T21:38:02.998Z,4.90
2023-01-20T21:40:34.608Z,4.60
2023-01-20T21:46:44.179Z,4.30
2023-01-20T21:49:31.666Z,4.60
2023-01-20T21:52:19.733Z,4.80
2023-01-20T21:54:48.615Z,4.70
2023-01-20T21:57:17.683Z,4.50
2023-01-20T22:00:06.248Z,4.50
2023-01-20T22:02:59.722Z,4.60
2023-01-20T22:08:34.582Z,4.60
2023-01-20T22:11:03.509Z,4.60
2023-01-20T22:13:54.409Z,4.80
2023-01-20T22:16:23.862Z,4.40
2023-01-20T22:18:53.600Z,4.60
2023-01-20T22:21:42.627Z,4.70
2023-01-20T22:24:12.289Z,4.70
2023-01-20T22:30:04.745Z,4.50
2023-01-20T22:32:54.029Z,4.30
2023-01-20T22:35:39.948Z,4.20
2023-01-20T22:38:29.014Z,4.40
2023-01-20T22:41:33.587Z,4.50
2023-01-20T22:44:02.421Z,4.50
2023-01-20T22:47:10.270Z,4.50
2023-01-20T22:49:39.099Z,4.70
2023-01-20T22:52:07.932Z,4.70
2023-01-20T22:54:55.677Z,4.60
2023-01-20T22:57:24.498Z,4.70
2023-01-20T23:00:12.356Z,4.70
2023-01-20T23:02:41.077Z,4.80
2023-01-20T23:05:10.203Z,4.60
2023-01-20T23:07:57.656Z,4.50
2023-01-20T23:11:04.839Z,4.60
2023-01-20T23:13:36.814Z,4.60
2023-01-20T23:16:07.050Z,4.50
2023-01-20T23:18:37.163Z,4.50
2023-01-20T23:21:23.941Z,4.70
2023-01-20T23:23:54.925Z,4.50
2023-01-20T23:26:29.329Z,4.50
2023-01-20T23:29:35.458Z,4.30
2023-01-20T23:32:22.612Z,4.30
2023-01-20T23:34:51.368Z,4.30
2023-01-20T23:37:20.179Z,3.80
2023-01-20T23:39:52.132Z,3.80
2023-01-20T23:42:21.208Z,3.90
2023-01-20T23:44:51.789Z,3.80
2023-01-20T23:47:20.533Z,3.80
2023-01-20T23:50:25.122Z,3.80
2023-01-20T23:53:31.811Z,3.60
2023-01-20T23:56:19.478Z,3.60
2023-01-20T23:58:48.975Z,3.60
